createdAt,value
2022-11-12T00:02:41.776Z,11.90
2022-11-12T00:05:27.595Z,12.00
2022-11-12T00:08:13.723Z,12.00
2022-11-12T00:10:59.953Z,12.40
2022-11-12T00:13:46.247Z,12.00
2022-11-12T00:16:31.935Z,10.00
2022-11-12T00:19:17.674Z,12.30
2022-11-12T00:22:03.291Z,12.00
2022-11-12T00:27:35.802Z,11.90
2022-11-12T00:30:21.516Z,12.60
2022-11-12T00:33:07.722Z,11.90
2022-11-12T00:35:53.303Z,12.80
2022-11-12T00:38:39.213Z,11.90
2022-11-12T00:41:25.606Z,11.90
2022-11-12T00:44:11.304Z,12.40
2022-11-12T00:49:43.373Z,11.80
2022-11-12T00:52:28.760Z,11.70
2022-11-12T00:55:14.503Z,11.70
2022-11-12T00:58:00.091Z,11.70
2022-11-12T01:00:45.830Z,11.70
2022-11-12T01:06:20.784Z,11.60
2022-11-12T01:09:06.111Z,11.70
2022-11-12T01:11:51.720Z,11.60
2022-11-12T01:14:37.493Z,11.60
2022-11-12T01:17:23.194Z,11.60
2022-11-12T01:20:16.994Z,11.60
2022-11-12T01:23:03.093Z,11.30
2022-11-12T01:25:49.550Z,11.60
2022-11-12T01:28:39.349Z,12.50
2022-11-12T01:31:31.150Z,12.90
2022-11-12T01:37:19.467Z,11.50
2022-11-12T01:40:08.098Z,11.50
2022-11-12T01:42:56.710Z,11.50
2022-11-12T01:45:48.336Z,11.50
2022-11-12T01:48:40.051Z,12.60
2022-11-12T01:51:32.648Z,11.40
2022-11-12T01:54:21.545Z,11.40
2022-11-12T01:57:10.308Z,10.20
2022-11-12T02:00:05.124Z,12.90
2022-11-12T02:02:55.559Z,11.40
2022-11-12T02:05:42.428Z,11.40
2022-11-12T02:08:30.090Z,11.40
2022-11-12T02:11:21.963Z,12.00
2022-11-12T02:14:09.308Z,11.40
2022-11-12T02:16:55.886Z,11.40
2022-11-12T02:19:42.330Z,11.10
2022-11-12T02:22:28.663Z,11.30
2022-11-12T02:25:20.091Z,12.80
2022-11-12T02:28:08.301Z,12.40
2022-11-12T02:30:55.813Z,11.40
2022-11-12T02:36:28.616Z,11.30
2022-11-12T02:42:00.966Z,10.80
2022-11-12T02:44:47.440Z,12.10
2022-11-12T02:47:33.020Z,12.20
2022-11-12T02:53:04.787Z,11.40
2022-11-12T02:55:51.025Z,11.70
2022-11-12T02:58:39.419Z,10.60
2022-11-12T03:04:11.499Z,11.30
2022-11-12T03:06:57.190Z,11.20
2022-11-12T03:09:43.230Z,11.30
2022-11-12T03:12:31.331Z,11.80
2022-11-12T03:15:17.694Z,11.30
2022-11-12T03:18:03.806Z,11.30
2022-11-12T03:20:52.629Z,11.30
2022-11-12T03:23:38.363Z,11.30
2022-11-12T03:26:24.543Z,11.20
2022-11-12T03:31:56.561Z,11.20
2022-11-12T03:34:42.314Z,11.30
2022-11-12T03:37:27.908Z,11.30
2022-11-12T03:40:14.052Z,11.30
2022-11-12T03:43:00.080Z,11.30
2022-11-12T03:45:45.974Z,11.30
2022-11-12T03:48:31.601Z,9.70
2022-11-12T03:51:19.212Z,12.50
2022-11-12T03:54:04.937Z,11.30
2022-11-12T03:56:50.605Z,11.30
2022-11-12T03:59:36.068Z,11.30
2022-11-12T04:05:27.745Z,11.30
2022-11-12T04:08:36.979Z,11.20
2022-11-12T04:11:23.274Z,11.30
2022-11-12T04:14:09.989Z,11.60
2022-11-12T04:17:14.459Z,11.30
2022-11-12T04:20:20.027Z,12.20
2022-11-12T04:23:05.972Z,11.20
2022-11-12T04:26:09.941Z,12.10
2022-11-12T04:29:14.921Z,11.30
2022-11-12T04:32:00.751Z,11.20
2022-11-12T04:34:46.462Z,10.30
2022-11-12T04:37:44.949Z,11.20
2022-11-12T04:40:50.317Z,11.10
2022-11-12T04:43:55.433Z,12.20
2022-11-12T04:46:41.099Z,11.20
2022-11-12T04:49:28.934Z,11.20
2022-11-12T04:52:14.839Z,11.20
2022-11-12T04:57:47.649Z,11.20
2022-11-12T05:00:34.634Z,11.80
2022-11-12T05:03:20.619Z,11.30
2022-11-12T05:06:26.213Z,11.30
2022-11-12T05:09:11.958Z,11.30
2022-11-12T05:11:57.713Z,11.60
2022-11-12T05:14:43.573Z,12.50
2022-11-12T05:17:31.431Z,12.60
2022-11-12T05:20:18.271Z,11.30
2022-11-12T05:23:07.804Z,11.30
2022-11-12T05:25:54.081Z,11.30
2022-11-12T05:28:39.944Z,11.30
2022-11-12T05:31:25.842Z,11.80
2022-11-12T05:34:11.969Z,11.30
2022-11-12T05:39:44.742Z,11.30
2022-11-12T05:42:30.573Z,11.30
2022-11-12T05:45:16.389Z,12.70
2022-11-12T05:48:02.031Z,11.20
2022-11-12T05:51:12.112Z,11.30
2022-11-12T05:53:58.507Z,11.70
2022-11-12T05:56:44.740Z,12.10
2022-11-12T05:59:30.763Z,12.40
2022-11-12T06:02:16.440Z,11.90
2022-11-12T06:05:02.530Z,12.50
2022-11-12T06:08:01.287Z,11.00
2022-11-12T06:10:55.764Z,11.40
2022-11-12T06:13:43.824Z,11.20
2022-11-12T06:16:32.084Z,11.10
2022-11-12T06:22:04.766Z,11.20
2022-11-12T06:24:50.481Z,11.20
2022-11-12T06:27:36.217Z,11.20
2022-11-12T06:30:25.664Z,12.10
2022-11-12T06:33:12.125Z,11.80
2022-11-12T06:36:02.849Z,10.70
2022-11-12T06:38:49.165Z,10.10
2022-11-12T06:41:35.121Z,11.20
2022-11-12T06:44:22.500Z,11.80
2022-11-12T06:47:08.475Z,11.60
2022-11-12T06:55:28.349Z,11.00
2022-11-12T06:58:14.511Z,11.80
2022-11-12T07:01:12.433Z,11.00
2022-11-12T07:03:59.161Z,10.40
2022-11-12T07:06:45.037Z,11.00
2022-11-12T07:12:19.375Z,9.40
2022-11-12T07:15:08.224Z,11.10
2022-11-12T07:17:54.446Z,10.90
2022-11-12T07:20:49.651Z,11.80
2022-11-12T07:23:37.417Z,11.90
2022-11-12T07:26:27.306Z,11.70
2022-11-12T07:29:30.037Z,10.80
2022-11-12T07:32:23.308Z,10.90
2022-11-12T07:35:12.404Z,11.00
2022-11-12T07:37:59.768Z,11.00
2022-11-12T07:40:46.099Z,10.90
2022-11-12T07:43:33.966Z,10.90
2022-11-12T07:46:26.046Z,11.00
2022-11-12T07:49:12.159Z,10.90
2022-11-12T07:51:58.129Z,11.20
2022-11-12T07:54:45.088Z,11.00
2022-11-12T07:57:34.211Z,12.40
2022-11-12T08:00:21.679Z,9.90
2022-11-12T08:03:08.227Z,11.00
2022-11-12T08:09:12.075Z,6.70
2022-11-12T08:12:03.956Z,12.80
2022-11-12T08:14:58.713Z,10.80
2022-11-12T08:17:45.076Z,12.60
2022-11-12T08:20:34.828Z,11.00
2022-11-12T08:23:20.999Z,11.10
2022-11-12T08:26:09.363Z,11.70
2022-11-12T08:28:55.928Z,13.30
2022-11-12T08:31:41.470Z,10.90
2022-11-12T08:34:30.592Z,11.80
2022-11-12T08:40:02.033Z,10.90
2022-11-12T08:42:48.292Z,12.00
2022-11-12T08:45:36.417Z,11.10
2022-11-12T08:48:25.015Z,11.20
2022-11-12T08:51:11.421Z,11.20
2022-11-12T08:53:57.544Z,11.20
2022-11-12T08:56:46.529Z,11.20
2022-11-12T08:59:32.341Z,11.30
2022-11-12T09:02:17.981Z,11.50
2022-11-12T09:05:04.291Z,11.50
2022-11-12T09:08:00.705Z,11.40
2022-11-12T09:10:47.538Z,12.60
2022-11-12T09:13:36.748Z,11.40
2022-11-12T09:16:24.874Z,12.10
2022-11-12T09:19:11.017Z,11.40
2022-11-12T09:21:56.972Z,11.60
2022-11-12T09:24:42.962Z,12.10
2022-11-12T09:27:29.422Z,11.60
2022-11-12T09:30:15.958Z,12.90
2022-11-12T09:33:02.797Z,12.20
2022-11-12T09:35:49.351Z,13.40
2022-11-12T09:38:37.315Z,12.60
2022-11-12T09:41:28.319Z,13.50
2022-11-12T09:44:22.534Z,12.40
2022-11-12T09:47:24.967Z,13.60
2022-11-12T09:50:21.934Z,12.40
2022-11-12T09:53:17.702Z,13.20
2022-11-12T09:56:11.905Z,12.30
2022-11-12T09:59:01.897Z,12.30
2022-11-12T10:02:08.546Z,12.30
2022-11-12T10:05:08.005Z,12.70
2022-11-12T10:08:19.134Z,12.70
2022-11-12T10:12:04.242Z,12.50
2022-11-12T10:15:32.042Z,13.50
2022-11-12T10:18:35.956Z,11.80
2022-11-12T10:22:12.961Z,13.90
2022-11-12T10:25:10.437Z,11.30
2022-11-12T10:27:56.478Z,13.90
2022-11-12T10:30:43.738Z,12.60
2022-11-12T10:33:31.954Z,12.50
2022-11-12T10:36:29.109Z,12.60
2022-11-12T10:39:36.397Z,12.70
2022-11-12T10:42:24.962Z,11.50
2022-11-12T10:45:23.166Z,13.60
2022-11-12T10:48:33.099Z,12.70
2022-11-12T10:51:23.988Z,12.70
2022-11-12T10:54:36.552Z,13.30
2022-11-12T10:57:27.212Z,12.80
2022-11-12T11:00:14.272Z,13.70
2022-11-12T11:03:25.359Z,14.10
2022-11-12T11:06:14.394Z,12.90
2022-11-12T11:09:09.548Z,13.30
2022-11-12T11:11:55.451Z,13.10
2022-11-12T11:14:45.409Z,14.20
2022-11-12T11:17:32.068Z,13.20
2022-11-12T11:20:32.091Z,13.20
2022-11-12T11:23:25.361Z,14.50
2022-11-12T11:26:34.212Z,13.60
2022-11-12T11:29:41.904Z,13.80
2022-11-12T11:32:27.892Z,13.90
2022-11-12T11:35:44.925Z,13.90
2022-11-12T11:38:50.330Z,13.80
2022-11-12T11:41:45.364Z,13.70
2022-11-12T11:44:34.235Z,13.60
2022-11-12T11:48:01.675Z,13.50
2022-11-12T11:50:59.758Z,13.50
2022-11-12T11:53:48.704Z,13.50
2022-11-12T11:56:40.430Z,13.50
2022-11-12T11:59:45.889Z,14.10
2022-11-12T12:03:04.098Z,13.40
2022-11-12T12:06:12.868Z,13.40
2022-11-12T12:09:00.279Z,13.40
2022-11-12T12:12:06.358Z,15.40
2022-11-12T12:15:21.599Z,13.40
2022-11-12T12:18:14.235Z,11.90
2022-11-12T12:21:12.449Z,12.10
2022-11-12T12:24:26.514Z,13.60
2022-11-12T12:27:21.603Z,13.60
2022-11-12T12:30:18.336Z,13.80
2022-11-12T12:33:34.463Z,13.90
2022-11-12T12:36:31.904Z,14.00
2022-11-12T12:39:20.735Z,14.30
2022-11-12T12:42:29.418Z,14.90
2022-11-12T12:45:20.634Z,14.50
2022-11-12T12:48:13.100Z,14.60
2022-11-12T12:50:58.761Z,14.60
2022-11-12T12:53:44.483Z,15.70
2022-11-12T12:56:33.469Z,14.80
2022-11-12T12:59:20.959Z,15.20
2022-11-12T13:02:24.761Z,14.80
2022-11-12T13:05:36.719Z,14.80
2022-11-12T13:08:26.762Z,14.80
2022-11-12T13:11:58.350Z,14.80
2022-11-12T13:14:48.359Z,14.40
2022-11-12T13:17:48.640Z,14.20
2022-11-12T13:20:40.280Z,14.20
2022-11-12T13:24:09.517Z,13.90
2022-11-12T13:26:57.839Z,14.60
2022-11-12T13:29:49.050Z,15.10
2022-11-12T13:32:56.297Z,13.80
2022-11-12T13:38:42.825Z,14.10
2022-11-12T13:41:52.635Z,13.90
2022-11-12T13:45:01.776Z,13.70
2022-11-12T13:48:07.278Z,14.70
2022-11-12T13:58:55.187Z,13.10
2022-11-12T14:01:49.803Z,12.40
2022-11-12T14:18:09.148Z,12.10
2022-11-12T14:23:55.000Z,12.30
2022-11-12T14:27:32.949Z,12.10
2022-11-12T14:30:32.306Z,12.80
2022-11-12T14:33:28.960Z,12.20
2022-11-12T14:36:18.415Z,12.50
2022-11-12T14:39:04.680Z,11.80
2022-11-12T14:41:57.386Z,12.00
2022-11-12T14:44:52.094Z,10.60
2022-11-12T14:47:38.272Z,11.90
2022-11-12T14:50:40.608Z,12.20
2022-11-12T14:53:39.848Z,12.80
2022-11-12T14:56:50.998Z,11.70
2022-11-12T15:03:06.492Z,11.30
2022-11-12T15:06:09.690Z,12.00
2022-11-12T15:09:01.687Z,12.20
2022-11-12T15:12:04.946Z,11.40
2022-11-12T15:15:23.495Z,11.20
2022-11-12T15:22:33.438Z,11.30
2022-11-12T15:26:24.637Z,10.60
2022-11-12T15:32:02.280Z,12.30
2022-11-12T15:34:51.585Z,10.20
2022-11-12T15:37:42.931Z,11.30
2022-11-12T15:40:29.253Z,12.70
2022-11-12T15:43:18.337Z,11.20
2022-11-12T15:46:03.641Z,11.20
2022-11-12T15:48:55.608Z,11.20
2022-11-12T15:51:41.340Z,11.10
2022-11-12T15:54:26.621Z,11.40
2022-11-12T15:57:16.787Z,11.00
2022-11-12T16:00:08.366Z,10.90
2022-11-12T16:03:12.216Z,10.30
2022-11-12T16:05:58.079Z,11.80
2022-11-12T16:08:43.904Z,10.50
2022-11-12T16:11:35.689Z,10.00
2022-11-12T16:17:16.871Z,7.10
2022-11-12T16:20:02.603Z,9.70
2022-11-12T16:22:49.128Z,10.10
2022-11-12T16:25:36.953Z,10.00
2022-11-12T16:28:22.493Z,9.90
2022-11-12T16:31:07.718Z,10.00
2022-11-12T16:33:53.576Z,10.00
2022-11-12T16:36:40.064Z,10.20
2022-11-12T16:39:25.575Z,9.70
2022-11-12T16:42:11.250Z,9.80
2022-11-12T16:44:56.843Z,10.50
2022-11-12T16:47:53.839Z,9.80
2022-11-12T16:50:39.270Z,10.00
2022-11-12T16:53:25.156Z,9.70
2022-11-12T16:56:13.826Z,9.80
2022-11-12T16:58:59.281Z,9.00
2022-11-12T17:01:44.638Z,8.80
2022-11-12T17:04:29.894Z,9.50
2022-11-12T17:07:16.709Z,10.60
2022-11-12T17:10:02.131Z,9.60
2022-11-12T17:12:48.745Z,9.50
2022-11-12T17:15:33.876Z,8.60
2022-11-12T17:18:19.180Z,9.10
2022-11-12T17:21:14.335Z,9.20
2022-11-12T17:23:59.900Z,9.30
2022-11-12T17:26:46.326Z,9.20
2022-11-12T17:29:31.914Z,11.10
2022-11-12T17:32:17.519Z,9.20
2022-11-12T17:35:03.264Z,9.70
2022-11-12T17:37:48.578Z,9.00
2022-11-12T17:40:34.204Z,8.10
2022-11-12T17:43:19.484Z,10.60
2022-11-12T17:46:07.058Z,8.80
2022-11-12T17:48:52.514Z,8.80
2022-11-12T17:51:37.865Z,8.80
2022-11-12T17:54:23.649Z,8.30
2022-11-12T17:57:09.064Z,8.80
2022-11-12T18:02:40.390Z,8.30
2022-11-12T18:05:26.074Z,8.70
2022-11-12T18:08:11.685Z,8.80
2022-11-12T18:22:02.261Z,10.90
2022-11-12T18:24:48.273Z,8.50
2022-11-12T18:30:19.777Z,8.60
2022-11-12T18:36:01.238Z,8.20
2022-11-12T18:38:49.908Z,8.20
2022-11-12T18:41:35.464Z,8.10
2022-11-12T18:44:25.894Z,8.10
2022-11-12T18:47:11.683Z,8.30
2022-11-12T18:49:57.279Z,7.60
2022-11-12T18:55:29.001Z,8.20
2022-11-12T18:58:14.410Z,8.20
2022-11-12T19:01:05.171Z,8.00
2022-11-12T19:03:55.622Z,8.30
2022-11-12T19:06:41.589Z,8.00
2022-11-12T19:09:26.951Z,8.10
2022-11-12T19:12:12.693Z,9.10
2022-11-12T19:17:44.237Z,7.90
2022-11-12T19:20:30.383Z,6.90
2022-11-12T19:23:15.767Z,7.90
2022-11-12T19:26:06.982Z,7.70
2022-11-12T19:28:52.625Z,7.80
2022-11-12T19:31:37.753Z,7.60
2022-11-12T19:34:23.250Z,7.70
2022-11-12T19:37:32.356Z,7.70
2022-11-12T19:40:17.012Z,8.00
2022-11-12T19:43:02.568Z,7.60
2022-11-12T19:45:48.433Z,7.40
2022-11-12T19:48:33.867Z,7.60
2022-11-12T19:51:19.042Z,7.40
2022-11-12T19:54:04.715Z,7.60
2022-11-12T19:56:50.364Z,6.90
2022-11-12T19:59:35.771Z,7.60
2022-11-12T20:02:21.428Z,7.60
2022-11-12T20:05:07.153Z,7.20
2022-11-12T20:07:52.930Z,7.80
2022-11-12T20:16:13.044Z,7.70
2022-11-12T20:24:30.595Z,9.40
2022-11-12T20:27:17.722Z,7.00
2022-11-12T20:30:04.154Z,6.60
2022-11-12T20:32:49.388Z,7.60
2022-11-12T20:35:36.474Z,7.60
2022-11-12T20:38:21.789Z,7.60
2022-11-12T20:41:15.378Z,8.20
2022-11-12T20:44:01.012Z,7.40
2022-11-12T20:46:46.614Z,7.70
2022-11-12T20:52:18.540Z,7.70
2022-11-12T20:57:49.719Z,7.00
2022-11-12T21:38:35.089Z,6.50
2022-11-12T21:42:11.113Z,7.90
2022-11-12T21:45:51.551Z,6.50
2022-11-12T21:52:29.053Z,5.60
2022-11-12T21:55:40.364Z,6.60
2022-11-12T21:58:52.531Z,6.40
2022-11-12T22:10:17.219Z,6.60
2022-11-12T22:13:50.473Z,6.70
2022-11-12T22:20:29.435Z,6.40
2022-11-12T22:23:25.565Z,6.50
2022-11-12T22:26:46.592Z,6.50
2022-11-12T22:29:46.925Z,6.60
2022-11-12T22:35:22.990Z,6.60
2022-11-12T22:38:10.766Z,6.50
2022-11-12T22:41:08.112Z,6.50
2022-11-12T22:43:56.816Z,6.00
2022-11-12T22:46:45.408Z,6.60
2022-11-12T22:49:31.773Z,6.40
2022-11-12T22:52:21.866Z,7.40
2022-11-12T22:55:09.568Z,7.60
2022-11-12T23:00:45.451Z,6.40
2022-11-12T23:03:32.676Z,6.30
2022-11-12T23:09:08.105Z,6.80
2022-11-12T23:11:55.562Z,6.10
2022-11-12T23:14:41.792Z,7.50
2022-11-12T23:17:30.096Z,6.10
2022-11-12T23:20:16.202Z,6.00
2022-11-12T23:25:52.580Z,6.10
2022-11-12T23:31:30.522Z,5.60
2022-11-12T23:34:20.140Z,5.90
2022-11-12T23:45:37.411Z,5.70
2022-11-12T23:48:23.355Z,5.60
2022-11-12T23:51:17.463Z,5.60
2022-11-12T23:56:53.238Z,5.60
2022-11-12T23:59:40.447Z,5.20
